Terminal Aerodrome Forecast
Issued by NWS

Home | Current Version | Previous Version | Graphics & Text | Print | Product List | Glossary On
Versions: 1 2 3 4 5 6 7 8 9 10 11 12
000
FTUS45 KGGW 181127
TAFGDV
TAF
KGDV 181127Z 1812/1912 20006KT P6SM FEW150
     FM181600 19008KT P6SM FEW120
     FM182100 19012KT P6SM BKN130
     FM190000 15007KT P6SM BKN140
     FM190300 11008KT P6SM BKN130
     FM190800 26009KT P6SM BKN110=

USA.gov is the U.S. government's official web portal to all federal, state and local government web resources and services.